Time,TemperatureF,DewpointF,PressureIn,WindDirection,WindDirectionDegrees,WindSpeedMPH,WindSpeedGustMPH,Humidity,HourlyPrecipIn,Conditions,Clouds,dailyrainin,SolarRadiationWatts/m^2,SoftwareType,DateUTC
2013-01-18 00:23:00,37.0,16.0,-100.00,WSW,248,5.0,6.0,42,0.00,,,0.00,262.000000,,2013-01-18 00:23:00,
2013-01-18 00:32:00,37.0,16.0,-100.00,WSW,248,5.0,6.0,42,0.00,,,0.00,262.000000,,2013-01-18 00:32:00,
2013-01-18 00:42:00,37.0,16.0,-100.00,WSW,248,5.0,6.0,42,0.00,,,0.00,262.000000,,2013-01-18 00:42:00,
2013-01-18 00:52:00,37.0,16.0,-100.00,WSW,248,5.0,6.0,42,0.00,,,0.00,262.000000,,2013-01-18 00:52:00,
2013-01-18 01:22:00,35.0,17.0,-100.00,SSW,206,3.0,7.0,47,0.00,,,0.00,94.000000,,2013-01-18 01:22:00,
2013-01-18 01:33:00,35.0,17.0,-100.00,SSW,206,3.0,7.0,47,0.00,,,0.00,94.000000,,2013-01-18 01:33:00,
2013-01-18 01:42:00,35.0,17.0,-100.00,SSW,206,3.0,7.0,47,0.00,,,0.00,94.000000,,2013-01-18 01:42:00,
2013-01-18 01:52:00,35.0,17.0,-100.00,SSW,206,3.0,7.0,47,0.00,,,0.00,94.000000,,2013-01-18 01:52:00,
2013-01-18 02:22:00,31.0,15.0,-100.00,SW,225,3.0,4.0,51,0.00,,,0.00,3.000000,,2013-01-18 02:22:00,
2013-01-18 02:32:00,31.0,15.0,-100.00,SW,225,3.0,4.0,51,0.00,,,0.00,3.000000,,2013-01-18 02:32:00,
2013-01-18 02:42:00,31.0,15.0,-100.00,SW,225,3.0,4.0,51,0.00,,,0.00,3.000000,,2013-01-18 02:42:00,
2013-01-18 02:52:00,31.0,15.0,-100.00,SW,225,3.0,4.0,51,0.00,,,0.00,3.000000,,2013-01-18 02:52:00,
2013-01-18 03:22:00,30.0,16.0,-100.00,ENE,68,2.0,3.0,56,0.00,,,0.00,1.000000,,2013-01-18 03:22:00,
2013-01-18 03:33:00,30.0,16.0,-100.00,ENE,68,2.0,3.0,56,0.00,,,0.00,1.000000,,2013-01-18 03:33:00,
2013-01-18 03:42:00,30.0,16.0,-100.00,ENE,68,2.0,3.0,56,0.00,,,0.00,1.000000,,2013-01-18 03:42:00,
2013-01-18 03:52:00,30.0,16.0,-100.00,ENE,68,2.0,3.0,56,0.00,,,0.00,1.000000,,2013-01-18 03:52:00,
2013-01-18 04:22:00,28.0,16.0,-100.00,ENE,76,3.0,5.0,60,0.00,,,0.00,1.000000,,2013-01-18 04:22:00,
2013-01-18 04:32:00,28.0,16.0,-100.00,ENE,76,3.0,5.0,60,0.00,,,0.00,1.000000,,2013-01-18 04:32:00,
2013-01-18 04:42:00,28.0,16.0,-100.00,ENE,76,3.0,5.0,60,0.00,,,0.00,1.000000,,2013-01-18 04:42:00,
2013-01-18 04:52:00,28.0,16.0,-100.00,ENE,76,3.0,5.0,60,0.00,,,0.00,1.000000,,2013-01-18 04:52:00,
2013-01-18 05:22:00,25.0,16.0,-100.00,East,82,4.0,6.0,69,0.00,,,0.00,1.000000,,2013-01-18 05:22:00,
2013-01-18 05:33:00,25.0,16.0,-100.00,East,82,4.0,6.0,69,0.00,,,0.00,1.000000,,2013-01-18 05:33:00,
2013-01-18 05:42:00,25.0,16.0,-100.00,East,82,4.0,6.0,69,0.00,,,0.00,1.000000,,2013-01-18 05:42:00,
2013-01-18 05:52:00,25.0,16.0,-100.00,East,82,4.0,6.0,69,0.00,,,0.00,1.000000,,2013-01-18 05:52:00,
2013-01-18 06:22:00,24.0,16.0,-100.00,ENE,75,5.0,6.0,72,0.00,,,0.00,1.000000,,2013-01-18 06:22:00,
2013-01-18 06:32:00,24.0,16.0,-100.00,ENE,75,5.0,6.0,72,0.00,,,0.00,1.000000,,2013-01-18 06:32:00,
2013-01-18 06:43:00,24.0,16.0,-100.00,ENE,75,5.0,6.0,72,0.00,,,0.00,1.000000,,2013-01-18 06:43:00,
2013-01-18 06:52:00,24.0,16.0,-100.00,ENE,75,5.0,6.0,72,0.00,,,0.00,1.000000,,2013-01-18 06:52:00,
2013-01-18 07:22:00,25.0,15.0,-100.00,ENE,70,6.0,8.0,64,0.00,,,0.00,1.000000,,2013-01-18 07:22:00,
2013-01-18 07:32:00,25.0,15.0,-100.00,ENE,70,6.0,8.0,64,0.00,,,0.00,1.000000,,2013-01-18 07:32:00,
2013-01-18 07:42:00,25.0,15.0,-100.00,ENE,70,6.0,8.0,64,0.00,,,0.00,1.000000,,2013-01-18 07:42:00,
2013-01-18 07:52:00,25.0,15.0,-100.00,ENE,70,6.0,8.0,64,0.00,,,0.00,1.000000,,2013-01-18 07:52:00,
2013-01-18 08:22:00,21.0,14.0,-100.00,ENE,78,5.0,10.0,75,0.00,,,0.00,1.000000,,2013-01-18 08:22:00,
2013-01-18 08:32:00,21.0,14.0,-100.00,ENE,78,5.0,10.0,75,0.00,,,0.00,1.000000,,2013-01-18 08:32:00,
2013-01-18 08:42:00,21.0,14.0,-100.00,ENE,78,5.0,10.0,75,0.00,,,0.00,1.000000,,2013-01-18 08:42:00,
2013-01-18 08:52:00,21.0,14.0,-100.00,ENE,78,5.0,10.0,75,0.00,,,0.00,1.000000,,2013-01-18 08:52:00,
2013-01-18 09:22:00,19.0,13.0,-100.00,ENE,77,5.0,10.0,77,0.00,,,0.00,1.000000,,2013-01-18 09:22:00,
2013-01-18 09:32:00,19.0,13.0,-100.00,ENE,77,5.0,10.0,77,0.00,,,0.00,1.000000,,2013-01-18 09:32:00,
2013-01-18 09:42:00,19.0,13.0,-100.00,ENE,77,5.0,10.0,77,0.00,,,0.00,1.000000,,2013-01-18 09:42:00,
2013-01-18 09:52:00,19.0,13.0,-100.00,ENE,77,5.0,10.0,77,0.00,,,0.00,1.000000,,2013-01-18 09:52:00,
2013-01-18 10:22:00,18.0,13.0,-100.00,East,83,4.0,7.0,80,0.00,,,0.00,1.000000,,2013-01-18 10:22:00,
2013-01-18 10:32:00,18.0,13.0,-100.00,East,83,4.0,7.0,80,0.00,,,0.00,1.000000,,2013-01-18 10:32:00,
2013-01-18 10:42:00,18.0,13.0,-100.00,East,83,4.0,7.0,80,0.00,,,0.00,1.000000,,2013-01-18 10:42:00,
2013-01-18 10:52:00,18.0,13.0,-100.00,East,83,4.0,7.0,80,0.00,,,0.00,1.000000,,2013-01-18 10:52:00,
2013-01-18 11:22:00,19.0,12.0,-100.00,ENE,70,5.0,8.0,75,0.00,,,-99.99,1.000000,,2013-01-18 11:22:00,
2013-01-18 11:32:00,19.0,12.0,-100.00,ENE,70,5.0,8.0,75,0.00,,,-99.99,1.000000,,2013-01-18 11:32:00,
2013-01-18 11:42:00,19.0,12.0,-100.00,ENE,70,5.0,8.0,75,0.00,,,-99.99,1.000000,,2013-01-18 11:42:00,
2013-01-18 11:52:00,19.0,12.0,-100.00,ENE,70,5.0,8.0,75,0.00,,,-99.99,1.000000,,2013-01-18 11:52:00,
2013-01-18 12:22:00,17.0,11.0,-100.00,ENE,76,6.0,11.0,77,0.00,,,0.00,1.000000,,2013-01-18 12:22:00,
2013-01-18 12:32:00,17.0,11.0,-100.00,ENE,76,6.0,11.0,77,0.00,,,0.00,1.000000,,2013-01-18 12:32:00,
2013-01-18 12:42:00,17.0,11.0,-100.00,ENE,76,6.0,11.0,77,0.00,,,0.00,1.000000,,2013-01-18 12:42:00,
2013-01-18 12:52:00,17.0,11.0,-100.00,ENE,76,6.0,11.0,77,0.00,,,0.00,1.000000,,2013-01-18 12:52:00,
2013-01-18 13:22:00,15.0,11.0,-100.00,ENE,71,7.0,9.0,82,0.00,,,-99.99,1.000000,,2013-01-18 13:22:00,
2013-01-18 13:33:00,15.0,11.0,-100.00,ENE,71,7.0,9.0,82,0.00,,,-99.99,1.000000,,2013-01-18 13:33:00,
2013-01-18 13:42:00,15.0,11.0,-100.00,ENE,71,7.0,9.0,82,0.00,,,-99.99,1.000000,,2013-01-18 13:42:00,
2013-01-18 13:52:00,15.0,11.0,-100.00,ENE,71,7.0,9.0,82,0.00,,,-99.99,1.000000,,2013-01-18 13:52:00,
2013-01-18 14:22:00,14.0,10.0,-100.00,ENE,64,7.0,12.0,83,0.00,,,0.00,1.000000,,2013-01-18 14:22:00,
2013-01-18 14:33:00,14.0,10.0,-100.00,ENE,64,7.0,12.0,83,0.00,,,0.00,1.000000,,2013-01-18 14:33:00,
2013-01-18 14:42:00,14.0,10.0,-100.00,ENE,64,7.0,12.0,83,0.00,,,0.00,1.000000,,2013-01-18 14:42:00,
2013-01-18 14:52:00,14.0,10.0,-100.00,ENE,64,7.0,12.0,83,0.00,,,0.00,1.000000,,2013-01-18 14:52:00,
2013-01-18 16:23:00,11.0,8.0,-100.00,ENE,71,6.0,8.0,87,-99.99,,,0.00,6.000000,,2013-01-18 16:23:00,
2013-01-18 16:33:00,11.0,8.0,-100.00,ENE,71,6.0,8.0,87,-99.99,,,0.00,6.000000,,2013-01-18 16:33:00,
2013-01-18 16:42:00,11.0,8.0,-100.00,ENE,71,6.0,8.0,87,-99.99,,,0.00,6.000000,,2013-01-18 16:42:00,
2013-01-18 16:52:00,11.0,8.0,-100.00,ENE,71,6.0,8.0,87,-99.99,,,0.00,6.000000,,2013-01-18 16:52:00,
2013-01-18 17:23:00,17.0,11.0,-100.00,ENE,66,8.0,13.0,76,0.00,,,0.00,52.000000,,2013-01-18 17:23:00,
2013-01-18 17:33:00,17.0,11.0,-100.00,ENE,66,8.0,13.0,76,0.00,,,0.00,52.000000,,2013-01-18 17:33:00,
2013-01-18 17:42:00,17.0,11.0,-100.00,ENE,66,8.0,13.0,76,0.00,,,0.00,52.000000,,2013-01-18 17:42:00,
2013-01-18 17:53:00,17.0,11.0,-100.00,ENE,66,8.0,13.0,76,0.00,,,0.00,52.000000,,2013-01-18 17:53:00,
2013-01-18 18:23:00,22.0,13.0,-100.00,ENE,64,7.0,11.0,67,0.00,,,0.00,137.000000,,2013-01-18 18:23:00,
2013-01-18 18:33:00,22.0,13.0,-100.00,ENE,64,7.0,11.0,67,0.00,,,0.00,137.000000,,2013-01-18 18:33:00,
2013-01-18 18:43:00,22.0,13.0,-100.00,ENE,64,7.0,11.0,67,0.00,,,0.00,137.000000,,2013-01-18 18:43:00,
2013-01-18 18:52:00,22.0,13.0,-100.00,ENE,64,7.0,11.0,67,0.00,,,0.00,137.000000,,2013-01-18 18:52:00,
2013-01-18 19:22:00,31.0,15.0,-100.00,ENE,65,6.0,10.0,51,0.00,,,-99.99,109.000000,,2013-01-18 19:22:00,
2013-01-18 19:33:00,31.0,15.0,-100.00,ENE,65,6.0,10.0,51,0.00,,,-99.99,109.000000,,2013-01-18 19:33:00,
2013-01-18 19:42:00,31.0,15.0,-100.00,ENE,65,6.0,10.0,51,0.00,,,-99.99,109.000000,,2013-01-18 19:42:00,
2013-01-18 19:52:00,31.0,15.0,-100.00,ENE,65,6.0,10.0,51,0.00,,,-99.99,109.000000,,2013-01-18 19:52:00,
2013-01-18 20:22:00,40.0,17.0,-100.00,NE,45,4.0,7.0,39,0.00,,,0.00,434.000000,,2013-01-18 20:22:00,
2013-01-18 20:42:00,40.0,17.0,-100.00,NE,45,4.0,7.0,39,0.00,,,0.00,434.000000,,2013-01-18 20:42:00,
2013-01-18 20:52:00,40.0,17.0,-100.00,NE,45,4.0,7.0,39,0.00,,,0.00,434.000000,,2013-01-18 20:52:00,
2013-01-18 21:22:00,40.0,18.0,-100.00,WSW,239,3.0,5.0,41,-99.99,,,0.00,522.000000,,2013-01-18 21:22:00,
2013-01-18 21:33:00,40.0,18.0,-100.00,WSW,239,3.0,5.0,41,-99.99,,,0.00,522.000000,,2013-01-18 21:33:00,
2013-01-18 21:42:00,40.0,18.0,-100.00,WSW,239,3.0,5.0,41,-99.99,,,0.00,522.000000,,2013-01-18 21:42:00,
2013-01-18 21:52:00,40.0,18.0,-100.00,WSW,239,3.0,5.0,41,-99.99,,,0.00,522.000000,,2013-01-18 21:52:00,
2013-01-18 22:22:00,44.0,20.0,-100.00,WSW,245,3.0,5.0,38,0.00,,,0.00,491.000000,,2013-01-18 22:22:00,
2013-01-18 22:32:00,44.0,20.0,-100.00,WSW,245,3.0,5.0,38,0.00,,,0.00,491.000000,,2013-01-18 22:32:00,
2013-01-18 22:42:00,44.0,20.0,-100.00,WSW,245,3.0,5.0,38,0.00,,,0.00,491.000000,,2013-01-18 22:42:00,
2013-01-18 22:52:00,44.0,20.0,-100.00,WSW,245,3.0,5.0,38,0.00,,,0.00,491.000000,,2013-01-18 22:52:00,
2013-01-18 23:22:00,42.0,19.0,-100.00,SW,236,4.0,6.0,40,0.00,,,0.00,403.000000,,2013-01-18 23:22:00,
2013-01-18 23:32:00,42.0,19.0,-100.00,SW,236,4.0,6.0,40,0.00,,,0.00,403.000000,,2013-01-18 23:32:00,
2013-01-18 23:42:00,42.0,19.0,-100.00,SW,236,4.0,6.0,40,0.00,,,0.00,403.000000,,2013-01-18 23:42:00,
2013-01-18 23:52:00,42.0,19.0,-100.00,SW,236,4.0,6.0,40,0.00,,,0.00,403.000000,,2013-01-18 23:52:00,